WLTA4: Dutch Creek at Waltreak, AR

                                SHEF ID:       WLTA4     Dutch Creek at Waltreak, AR
STATION TYPE: Stream Gauge

PRECIP STAGE RIV-FLOW BAT-LOAD
in ft cfs volt
Ccp-Rev Ccp-Rev Ccp-Rev Ccp-Rev
(America/Chicago)
02/15 00:00 0.00 9.60 2705 12.53
02/15 01:00 0.00 9.53 2656 12.51
02/15 02:00 0.00 9.35 2534 12.50
02/15 03:00 0.00 9.13 2370 12.50
02/15 04:00 0.03 8.93 2225 12.50
02/15 05:00 0.00 8.77 2113 12.50
02/15 06:00 0.00 8.64 2025 12.50
02/15 07:00 0.00 8.52 1946 12.50
02/15 08:00 0.00 8.41 1876 12.50
02/15 09:00 0.00 8.31 1813 12.50
02/15 10:00 0.00 8.24 1770 13.15
02/15 11:00 0.00 8.17 1727 13.75
02/15 12:00 0.00 8.11 1692 13.64
02/15 13:00 0.00 8.04 1646 13.65
02/15 14:00 0.00 7.99 1611 13.57
02/15 15:00 0.00 7.93 1569 13.39
02/15 16:00 0.00 7.89 1542 13.33
02/15 17:00 0.00 7.84 1508 13.27
02/15 18:00 0.00 7.80 1482 13.14
02/15 19:00 0.00 7.74 1442 12.86
02/15 20:00 0.00 7.70 1416 12.77
02/15 21:00 0.00 7.69 1410 12.72
02/15 22:00 0.00 7.67 1397 12.70
02/15 23:00 0.00 7.60 1353 12.66
Data processed at Mon 16Feb2026 05:54 GMT

NOTICE: If you are parsing this page

Please convert to using our Data API. Starting early 2026 we will be migrating to: https://water.usace.army.mil with modern pages rendered in JavaScript. When this migration completes you will no longer be able to scrape this page! CWMSDataAPI (CDA)

Timeseries IDs (TSIDs)

TSIDs used from left to right in the data table
WLTR.Precip-Inc.Total.1Hour.1Hour.Ccp-Rev
WLTR.Stage.Inst.1Hour.0.Ccp-Rev
WLTR.Flow.Inst.1Hour.0.Ccp-Rev
WLTR.Volt-Battery Load.Inst.1Hour.0.Ccp-Rev

                            

All information presented herein is the property of the government of the United States of America and may be revised or deleted at any time without prior notice. Dissemination of this information without the expressed written consent of the Public Affairs Office, Tulsa District U.S. Army Corps of Engineers is strictly prohibited. These data are gathered electronically and, as presented, have NOT undergone any form of quality control. These data are NOT guaranteed to be valid or correct.